sensor_id;sensor_type;location;lat;lon;timestamp;pressure;altitude;pressure_sealevel;temperature;humidity
39491;BME280;25175;50.140;18.990;2023-12-28T00:00:47;98745.94;;;1.31;59.33
39491;BME280;25175;50.140;18.990;2023-12-28T00:03:54;98754.13;;;1.26;59.15
39491;BME280;25175;50.140;18.990;2023-12-28T00:07:00;98751.81;;;1.23;59.09
39491;BME280;25175;50.140;18.990;2023-12-28T00:10:09;98753.88;;;1.20;59.22
39491;BME280;25175;50.140;18.990;2023-12-28T00:13:17;98757.69;;;1.16;59.34
39491;BME280;25175;50.140;18.990;2023-12-28T00:16:25;98739.38;;;1.09;59.40
39491;BME280;25175;50.140;18.990;2023-12-28T00:19:30;98597.13;;;0.11;59.84
39491;BME280;25175;50.140;18.990;2023-12-28T00:22:36;98735.44;;;1.05;59.91
39491;BME280;25175;50.140;18.990;2023-12-28T00:25:41;98736.28;;;1.06;60.13
39491;BME280;25175;50.140;18.990;2023-12-28T00:28:48;98734.34;;;1.08;59.99
39491;BME280;25175;50.140;18.990;2023-12-28T00:31:54;98726.75;;;1.06;59.48
39491;BME280;25175;50.140;18.990;2023-12-28T00:35:00;98736.28;;;1.06;59.96
39491;BME280;25175;50.140;18.990;2023-12-28T00:38:07;98698.81;;;0.92;59.92
39491;BME280;25175;50.140;18.990;2023-12-28T00:41:12;98717.81;;;1.01;59.87
39491;BME280;25175;50.140;18.990;2023-12-28T00:44:21;98716.25;;;1.08;59.72
39491;BME280;25175;50.140;18.990;2023-12-28T00:47:26;98711.75;;;1.10;59.54
39491;BME280;25175;50.140;18.990;2023-12-28T00:50:32;98709.03;;;1.11;59.57
39491;BME280;25175;50.140;18.990;2023-12-28T00:53:38;98708.06;;;1.12;59.14
39491;BME280;25175;50.140;18.990;2023-12-28T00:56:43;98698.19;;;1.08;59.57
39491;BME280;25175;50.140;18.990;2023-12-28T00:59:51;98693.28;;;1.05;59.53
39491;BME280;25175;50.140;18.990;2023-12-28T01:02:57;98688.69;;;0.99;59.63
39491;BME280;25175;50.140;18.990;2023-12-28T01:06:01;98704.19;;;0.99;59.62
39491;BME280;25175;50.140;18.990;2023-12-28T01:09:07;98692.19;;;1.07;59.52
39491;BME280;25175;50.140;18.990;2023-12-28T01:12:11;98704.97;;;1.09;59.25
39491;BME280;25175;50.140;18.990;2023-12-28T01:15:22;98688.66;;;1.08;59.25
39491;BME280;25175;50.140;18.990;2023-12-28T01:18:26;98699.00;;;1.08;59.26
39491;BME280;25175;50.140;18.990;2023-12-28T01:21:33;98704.00;;;1.10;59.30
39491;BME280;25175;50.140;18.990;2023-12-28T01:24:38;98700.50;;;1.11;59.15
39491;BME280;25175;50.140;18.990;2023-12-28T01:27:43;98690.44;;;1.08;59.09
39491;BME280;25175;50.140;18.990;2023-12-28T01:30:51;98675.97;;;0.88;59.50
39491;BME280;25175;50.140;18.990;2023-12-28T01:33:59;98689.44;;;0.82;59.60
39491;BME280;25175;50.140;18.990;2023-12-28T01:37:06;98695.88;;;0.78;59.94
39491;BME280;25175;50.140;18.990;2023-12-28T01:40:11;98681.59;;;0.74;60.18
39491;BME280;25175;50.140;18.990;2023-12-28T01:43:16;98684.75;;;0.68;60.15
39491;BME280;25175;50.140;18.990;2023-12-28T01:46:24;98682.31;;;0.66;60.39
39491;BME280;25175;50.140;18.990;2023-12-28T01:49:31;98677.97;;;0.67;60.70
39491;BME280;25175;50.140;18.990;2023-12-28T01:52:37;98664.09;;;0.68;60.47
39491;BME280;25175;50.140;18.990;2023-12-28T01:55:44;98654.34;;;0.62;60.44
39491;BME280;25175;50.140;18.990;2023-12-28T01:58:51;98651.34;;;0.57;60.72
39491;BME280;25175;50.140;18.990;2023-12-28T02:02:02;98638.63;;;0.46;60.88
39491;BME280;25175;50.140;18.990;2023-12-28T02:05:10;98648.91;;;0.55;60.88
39491;BME280;25175;50.140;18.990;2023-12-28T02:08:18;98650.31;;;0.50;60.83
39491;BME280;25175;50.140;18.990;2023-12-28T02:11:25;98645.81;;;0.52;61.08
39491;BME280;25175;50.140;18.990;2023-12-28T02:14:30;98622.19;;;0.47;60.91
39491;BME280;25175;50.140;18.990;2023-12-28T02:17:45;98642.97;;;0.45;60.81
39491;BME280;25175;50.140;18.990;2023-12-28T02:20:53;98618.31;;;0.24;61.37
39491;BME280;25175;50.140;18.990;2023-12-28T02:24:00;98630.19;;;0.44;61.08
39491;BME280;25175;50.140;18.990;2023-12-28T02:27:10;98633.72;;;0.43;60.94
39491;BME280;25175;50.140;18.990;2023-12-28T02:30:17;98640.81;;;0.41;60.90
39491;BME280;25175;50.140;18.990;2023-12-28T02:33:33;98651.97;;;0.32;61.27
39491;BME280;25175;50.140;18.990;2023-12-28T02:36:45;98644.78;;;0.26;61.59
39491;BME280;25175;50.140;18.990;2023-12-28T02:39:53;98647.34;;;0.26;61.81
39491;BME280;25175;50.140;18.990;2023-12-28T02:43:02;98649.94;;;0.26;61.50
39491;BME280;25175;50.140;18.990;2023-12-28T02:46:07;98639.22;;;0.21;61.63
39491;BME280;25175;50.140;18.990;2023-12-28T02:49:13;98633.38;;;0.19;62.29
39491;BME280;25175;50.140;18.990;2023-12-28T02:52:17;98621.44;;;0.18;62.18
39491;BME280;25175;50.140;18.990;2023-12-28T02:55:23;98600.00;;;0.08;62.10
39491;BME280;25175;50.140;18.990;2023-12-28T02:58:31;98475.44;;;-0.58;62.03
39491;BME280;25175;50.140;18.990;2023-12-28T03:01:37;98618.16;;;0.35;61.66
39491;BME280;25175;50.140;18.990;2023-12-28T03:04:43;98612.28;;;0.42;61.63
39491;BME280;25175;50.140;18.990;2023-12-28T03:07:49;98605.72;;;0.48;61.00
39491;BME280;25175;50.140;18.990;2023-12-28T03:10:53;98596.31;;;0.56;60.78
39491;BME280;25175;50.140;18.990;2023-12-28T03:14:03;98594.25;;;0.60;60.65
39491;BME280;25175;50.140;18.990;2023-12-28T03:17:08;98573.59;;;0.60;60.21
39491;BME280;25175;50.140;18.990;2023-12-28T03:20:15;98579.16;;;0.65;60.21
39491;BME280;25175;50.140;18.990;2023-12-28T03:23:20;98580.41;;;0.61;60.06
39491;BME280;25175;50.140;18.990;2023-12-28T03:26:26;98592.25;;;0.54;60.27
39491;BME280;25175;50.140;18.990;2023-12-28T03:29:33;98585.78;;;0.50;60.60
39491;BME280;25175;50.140;18.990;2023-12-28T03:32:39;98569.31;;;0.51;61.02
39491;BME280;25175;50.140;18.990;2023-12-28T03:35:43;98569.03;;;0.54;60.70
39491;BME280;25175;50.140;18.990;2023-12-28T03:38:54;98561.97;;;0.56;60.87
39491;BME280;25175;50.140;18.990;2023-12-28T03:41:58;98560.03;;;0.58;60.82
39491;BME280;25175;50.140;18.990;2023-12-28T03:45:07;98573.47;;;0.61;60.49
39491;BME280;25175;50.140;18.990;2023-12-28T03:48:12;98567.91;;;0.56;60.41
39491;BME280;25175;50.140;18.990;2023-12-28T03:51:18;98563.72;;;0.55;60.13
39491;BME280;25175;50.140;18.990;2023-12-28T03:54:24;98564.00;;;0.52;60.46
39491;BME280;25175;50.140;18.990;2023-12-28T03:57:30;98557.91;;;0.44;60.37
39491;BME280;25175;50.140;18.990;2023-12-28T04:00:38;98565.13;;;0.40;60.62
39491;BME280;25175;50.140;18.990;2023-12-28T04:03:44;98563.69;;;0.28;60.77
39491;BME280;25175;50.140;18.990;2023-12-28T04:06:49;98432.59;;;-0.68;60.97
39491;BME280;25175;50.140;18.990;2023-12-28T04:09:54;98581.25;;;0.15;61.26
39491;BME280;25175;50.140;18.990;2023-12-28T04:13:02;98580.19;;;-0.01;61.53
39491;BME280;25175;50.140;18.990;2023-12-28T04:16:12;98596.94;;;-0.05;61.71
39491;BME280;25175;50.140;18.990;2023-12-28T04:19:17;98590.00;;;-0.14;61.94
39491;BME280;25175;50.140;18.990;2023-12-28T04:22:22;98593.53;;;-0.15;62.09
39491;BME280;25175;50.140;18.990;2023-12-28T04:25:27;98595.16;;;-0.14;62.57
39491;BME280;25175;50.140;18.990;2023-12-28T04:28:33;98610.34;;;-0.11;62.55
39491;BME280;25175;50.140;18.990;2023-12-28T04:31:42;98605.34;;;-0.03;62.36
39491;BME280;25175;50.140;18.990;2023-12-28T04:34:48;98594.19;;;0.06;61.93
39491;BME280;25175;50.140;18.990;2023-12-28T04:37:55;98598.41;;;0.07;62.02
39491;BME280;25175;50.140;18.990;2023-12-28T04:41:00;98610.47;;;0.06;61.79
39491;BME280;25175;50.140;18.990;2023-12-28T04:44:08;98606.94;;;0.07;62.68
39491;BME280;25175;50.140;18.990;2023-12-28T04:47:16;98613.84;;;0.16;65.06
39491;BME280;25175;50.140;18.990;2023-12-28T04:50:21;98610.13;;;0.28;65.43
39491;BME280;25175;50.140;18.990;2023-12-28T04:53:27;98583.25;;;0.31;64.89
39491;BME280;25175;50.140;18.990;2023-12-28T04:56:31;98598.13;;;0.46;65.03
39491;BME280;25175;50.140;18.990;2023-12-28T04:59:39;98602.44;;;0.55;65.53
39491;BME280;25175;50.140;18.990;2023-12-28T05:02:47;98593.28;;;0.70;66.68
39491;BME280;25175;50.140;18.990;2023-12-28T05:05:52;98586.56;;;0.77;67.70
39491;BME280;25175;50.140;18.990;2023-12-28T05:08:57;98492.53;;;0.26;68.35
39491;BME280;25175;50.140;18.990;2023-12-28T05:12:04;98592.19;;;1.00;69.32
39491;BME280;25175;50.140;18.990;2023-12-28T05:15:10;98566.47;;;0.98;69.49
39491;BME280;25175;50.140;18.990;2023-12-28T05:18:22;98597.13;;;1.28;69.73
39491;BME280;25175;50.140;18.990;2023-12-28T05:21:27;98599.25;;;1.42;70.06
39491;BME280;25175;50.140;18.990;2023-12-28T05:24:32;98595.34;;;1.56;70.28
39491;BME280;25175;50.140;18.990;2023-12-28T05:27:37;98595.13;;;1.67;70.55
39491;BME280;25175;50.140;18.990;2023-12-28T05:30:44;98606.53;;;1.82;70.57
39491;BME280;25175;50.140;18.990;2023-12-28T05:33:52;98598.38;;;1.94;70.72
39491;BME280;25175;50.140;18.990;2023-12-28T05:36:58;98599.34;;;2.11;70.42
39491;BME280;25175;50.140;18.990;2023-12-28T05:40:04;98608.31;;;2.24;70.42
39491;BME280;25175;50.140;18.990;2023-12-28T05:43:11;98598.22;;;2.39;70.29
39491;BME280;25175;50.140;18.990;2023-12-28T05:46:16;98589.19;;;2.51;69.75
39491;BME280;25175;50.140;18.990;2023-12-28T05:49:24;98575.47;;;2.58;69.94
39491;BME280;25175;50.140;18.990;2023-12-28T05:52:29;98573.41;;;2.70;69.89
39491;BME280;25175;50.140;18.990;2023-12-28T05:55:34;98548.53;;;2.77;69.76
39491;BME280;25175;50.140;18.990;2023-12-28T05:58:46;98554.69;;;2.84;69.75
39491;BME280;25175;50.140;18.990;2023-12-28T06:01:55;98558.94;;;2.93;69.29
39491;BME280;25175;50.140;18.990;2023-12-28T06:05:04;98548.59;;;3.01;69.04
39491;BME280;25175;50.140;18.990;2023-12-28T06:08:13;98548.63;;;3.09;68.97
39491;BME280;25175;50.140;18.990;2023-12-28T06:11:18;98550.88;;;3.12;68.36
39491;BME280;25175;50.140;18.990;2023-12-28T06:14:24;98537.44;;;3.08;68.39
39491;BME280;25175;50.140;18.990;2023-12-28T06:17:28;98545.06;;;3.10;68.48
39491;BME280;25175;50.140;18.990;2023-12-28T06:20:37;98529.66;;;3.08;68.50
39491;BME280;25175;50.140;18.990;2023-12-28T06:23:42;98513.13;;;3.09;68.39
39491;BME280;25175;50.140;18.990;2023-12-28T06:26:47;98526.09;;;3.09;68.51
39491;BME280;25175;50.140;18.990;2023-12-28T06:29:53;98550.56;;;3.15;68.46
39491;BME280;25175;50.140;18.990;2023-12-28T06:32:59;98536.97;;;3.21;68.30
39491;BME280;25175;50.140;18.990;2023-12-28T06:36:11;98552.53;;;3.29;68.45
39491;BME280;25175;50.140;18.990;2023-12-28T06:39:17;98544.09;;;3.35;68.30
39491;BME280;25175;50.140;18.990;2023-12-28T06:42:22;98550.91;;;3.44;68.01
39491;BME280;25175;50.140;18.990;2023-12-28T06:45:27;98525.16;;;3.34;67.88
39491;BME280;25175;50.140;18.990;2023-12-28T06:48:33;98566.16;;;3.55;67.79
39491;BME280;25175;50.140;18.990;2023-12-28T06:51:44;98561.63;;;3.57;67.46
39491;BME280;25175;50.140;18.990;2023-12-28T06:54:50;98560.81;;;3.64;67.37
39491;BME280;25175;50.140;18.990;2023-12-28T06:57:56;98564.38;;;3.71;67.10
39491;BME280;25175;50.140;18.990;2023-12-28T07:01:03;98566.81;;;3.73;67.03
39491;BME280;25175;50.140;18.990;2023-12-28T07:04:09;98554.50;;;3.75;67.00
39491;BME280;25175;50.140;18.990;2023-12-28T07:07:21;98566.84;;;3.81;66.55
39491;BME280;25175;50.140;18.990;2023-12-28T07:10:29;98563.75;;;3.85;66.59
39491;BME280;25175;50.140;18.990;2023-12-28T07:13:33;98557.44;;;3.88;66.45
39491;BME280;25175;50.140;18.990;2023-12-28T07:16:39;98563.59;;;3.95;66.56
39491;BME280;25175;50.140;18.990;2023-12-28T07:19:44;98578.84;;;3.98;66.20
39491;BME280;25175;50.140;18.990;2023-12-28T07:22:53;98556.47;;;3.97;66.32
39491;BME280;25175;50.140;18.990;2023-12-28T07:25:57;98566.81;;;4.05;66.11
39491;BME280;25175;50.140;18.990;2023-12-28T07:29:05;98571.34;;;4.11;65.83
39491;BME280;25175;50.140;18.990;2023-12-28T07:32:10;98516.84;;;3.95;65.99
39491;BME280;25175;50.140;18.990;2023-12-28T07:35:17;98459.66;;;3.56;65.70
39491;BME280;25175;50.140;18.990;2023-12-28T07:38:24;98546.66;;;4.23;65.66
39491;BME280;25175;50.140;18.990;2023-12-28T07:41:32;98553.47;;;4.24;65.58
39491;BME280;25175;50.140;18.990;2023-12-28T07:44:37;98471.13;;;3.78;64.98
39491;BME280;25175;50.140;18.990;2023-12-28T07:47:43;98542.09;;;4.33;65.17
39491;BME280;25175;50.140;18.990;2023-12-28T07:50:48;98560.75;;;4.44;64.88
39491;BME280;25175;50.140;18.990;2023-12-28T07:53:56;98587.47;;;4.61;64.50
39491;BME280;25175;50.140;18.990;2023-12-28T07:57:04;98598.16;;;4.66;64.47
39491;BME280;25175;50.140;18.990;2023-12-28T08:00:10;98588.09;;;4.71;64.16
39491;BME280;25175;50.140;18.990;2023-12-28T08:03:16;98581.09;;;4.71;63.95
39491;BME280;25175;50.140;18.990;2023-12-28T08:06:22;98590.16;;;4.83;64.15
39491;BME280;25175;50.140;18.990;2023-12-28T08:09:29;98574.09;;;4.80;63.67
39491;BME280;25175;50.140;18.990;2023-12-28T08:12:34;98585.38;;;4.95;63.71
39491;BME280;25175;50.140;18.990;2023-12-28T08:15:39;98591.56;;;4.94;63.57
39491;BME280;25175;50.140;18.990;2023-12-28T08:18:48;98590.84;;;5.08;63.52
39491;BME280;25175;50.140;18.990;2023-12-28T08:21:53;98578.69;;;5.00;63.25
39491;BME280;25175;50.140;18.990;2023-12-28T08:25:04;98592.25;;;5.18;63.12
39491;BME280;25175;50.140;18.990;2023-12-28T08:28:10;98561.94;;;5.03;63.20
39491;BME280;25175;50.140;18.990;2023-12-28T08:31:17;98574.19;;;5.17;62.67
39491;BME280;25175;50.140;18.990;2023-12-28T08:34:24;98556.97;;;5.16;62.69
39491;BME280;25175;50.140;18.990;2023-12-28T08:37:31;98568.44;;;5.29;62.22
39491;BME280;25175;50.140;18.990;2023-12-28T08:40:38;98590.53;;;5.56;62.16
39491;BME280;25175;50.140;18.990;2023-12-28T08:43:43;98600.28;;;5.62;61.86
39491;BME280;25175;50.140;18.990;2023-12-28T08:46:49;98597.97;;;5.67;61.66
39491;BME280;25175;50.140;18.990;2023-12-28T08:49:55;98604.91;;;5.74;61.38
39491;BME280;25175;50.140;18.990;2023-12-28T08:52:59;98629.84;;;5.91;61.11
39491;BME280;25175;50.140;18.990;2023-12-28T08:56:16;98629.56;;;5.86;60.91
39491;BME280;25175;50.140;18.990;2023-12-28T08:59:22;98635.09;;;6.06;60.77
39491;BME280;25175;50.140;18.990;2023-12-28T09:02:28;98646.09;;;6.16;60.68
39491;BME280;25175;50.140;18.990;2023-12-28T09:05:34;98645.88;;;6.25;60.33
39491;BME280;25175;50.140;18.990;2023-12-28T09:08:41;98643.34;;;6.32;59.89
39491;BME280;25175;50.140;18.990;2023-12-28T09:11:53;98638.25;;;6.38;59.68
39491;BME280;25175;50.140;18.990;2023-12-28T09:15:15;98612.63;;;6.42;59.62
39491;BME280;25175;50.140;18.990;2023-12-28T09:18:20;98618.66;;;6.57;59.40
39491;BME280;25175;50.140;18.990;2023-12-28T09:21:25;98615.06;;;6.58;59.47
39491;BME280;25175;50.140;18.990;2023-12-28T09:24:30;98609.75;;;6.66;59.21
39491;BME280;25175;50.140;18.990;2023-12-28T09:27:42;98616.22;;;6.84;59.02
39491;BME280;25175;50.140;18.990;2023-12-28T09:30:49;98613.34;;;6.94;58.37
39491;BME280;25175;50.140;18.990;2023-12-28T09:33:55;98590.38;;;7.04;58.10
39491;BME280;25175;50.140;18.990;2023-12-28T09:37:01;98572.94;;;7.04;57.69
39491;BME280;25175;50.140;18.990;2023-12-28T09:40:08;98596.69;;;7.24;57.43
39491;BME280;25175;50.140;18.990;2023-12-28T09:43:22;98598.00;;;7.34;57.23
39491;BME280;25175;50.140;18.990;2023-12-28T09:46:31;98619.56;;;7.43;56.94
39491;BME280;25175;50.140;18.990;2023-12-28T09:49:37;98574.59;;;7.41;56.51
39491;BME280;25175;50.140;18.990;2023-12-28T09:52:45;98579.56;;;7.57;56.49
39491;BME280;25175;50.140;18.990;2023-12-28T09:55:51;98575.59;;;7.61;56.03
39491;BME280;25175;50.140;18.990;2023-12-28T09:58:59;98575.47;;;7.69;56.32
39491;BME280;25175;50.140;18.990;2023-12-28T10:02:07;98597.03;;;7.77;55.57
39491;BME280;25175;50.140;18.990;2023-12-28T10:05:15;98589.09;;;7.85;55.78
39491;BME280;25175;50.140;18.990;2023-12-28T10:08:21;98593.22;;;8.01;55.57
39491;BME280;25175;50.140;18.990;2023-12-28T10:11:25;98597.94;;;8.12;54.93
39491;BME280;25175;50.140;18.990;2023-12-28T10:14:34;98584.34;;;8.23;54.38
39491;BME280;25175;50.140;18.990;2023-12-28T10:17:39;98576.34;;;8.31;54.09
39491;BME280;25175;50.140;18.990;2023-12-28T10:20:49;98573.41;;;8.40;53.20
39491;BME280;25175;50.140;18.990;2023-12-28T10:23:55;98572.88;;;8.51;53.10
39491;BME280;25175;50.140;18.990;2023-12-28T10:27:01;98584.88;;;8.67;53.05
39491;BME280;25175;50.140;18.990;2023-12-28T10:30:10;98594.59;;;8.79;51.78
39491;BME280;25175;50.140;18.990;2023-12-28T10:33:17;98559.34;;;8.75;51.85
39491;BME280;25175;50.140;18.990;2023-12-28T10:36:22;98556.41;;;8.91;51.82
39491;BME280;25175;50.140;18.990;2023-12-28T10:39:31;98554.19;;;8.95;51.67
39491;BME280;25175;50.140;18.990;2023-12-28T10:42:52;98574.97;;;9.03;51.05
39491;BME280;25175;50.140;18.990;2023-12-28T10:46:18;98560.25;;;9.02;50.83
39491;BME280;25175;50.140;18.990;2023-12-28T10:49:33;98548.59;;;9.04;50.68
39491;BME280;25175;50.140;18.990;2023-12-28T10:52:45;98436.47;;;8.41;50.81
39491;BME280;25175;50.140;18.990;2023-12-28T10:56:10;98452.81;;;8.56;50.42
39491;BME280;25175;50.140;18.990;2023-12-28T10:59:37;98483.88;;;8.72;50.51
39491;BME280;25175;50.140;18.990;2023-12-28T11:02:56;98531.25;;;8.97;50.42
39491;BME280;25175;50.140;18.990;2023-12-28T11:06:08;98536.72;;;9.02;50.30
39491;BME280;25175;50.140;18.990;2023-12-28T11:09:16;98527.25;;;9.01;49.75
39491;BME280;25175;50.140;18.990;2023-12-28T11:12:23;98514.75;;;9.03;50.03
39491;BME280;25175;50.140;18.990;2023-12-28T11:15:31;98525.44;;;9.08;49.61
39491;BME280;25175;50.140;18.990;2023-12-28T11:18:44;98511.94;;;9.04;49.52
39491;BME280;25175;50.140;18.990;2023-12-28T11:21:50;98518.84;;;9.18;49.11
39491;BME280;25175;50.140;18.990;2023-12-28T11:24:58;98504.56;;;9.21;48.68
39491;BME280;25175;50.140;18.990;2023-12-28T11:28:11;98501.34;;;9.25;48.41
39491;BME280;25175;50.140;18.990;2023-12-28T11:31:18;98501.13;;;9.33;48.35
39491;BME280;25175;50.140;18.990;2023-12-28T11:34:28;98496.09;;;9.38;48.01
39491;BME280;25175;50.140;18.990;2023-12-28T11:37:38;98484.22;;;9.42;47.73
39491;BME280;25175;50.140;18.990;2023-12-28T11:40:47;98499.16;;;9.42;47.26
39491;BME280;25175;50.140;18.990;2023-12-28T11:43:55;98505.78;;;9.51;47.71
39491;BME280;25175;50.140;18.990;2023-12-28T11:46:59;98499.75;;;9.57;47.50
39491;BME280;25175;50.140;18.990;2023-12-28T11:50:18;98499.56;;;9.65;47.19
39491;BME280;25175;50.140;18.990;2023-12-28T11:53:25;98497.56;;;9.73;47.15
39491;BME280;25175;50.140;18.990;2023-12-28T11:56:31;98483.25;;;9.76;47.21
39491;BME280;25175;50.140;18.990;2023-12-28T11:59:36;98498.38;;;9.87;46.76
39491;BME280;25175;50.140;18.990;2023-12-28T12:02:44;98493.94;;;9.87;46.90
39491;BME280;25175;50.140;18.990;2023-12-28T12:05:51;98490.28;;;9.88;46.92
39491;BME280;25175;50.140;18.990;2023-12-28T12:08:58;98504.81;;;9.91;46.97
39491;BME280;25175;50.140;18.990;2023-12-28T12:12:06;98469.94;;;9.84;47.27
39491;BME280;25175;50.140;18.990;2023-12-28T12:15:13;98486.47;;;10.04;47.19
39491;BME280;25175;50.140;18.990;2023-12-28T12:18:18;98486.66;;;10.02;46.89
39491;BME280;25175;50.140;18.990;2023-12-28T12:21:27;98483.03;;;10.03;46.74
39491;BME280;25175;50.140;18.990;2023-12-28T12:24:33;98477.97;;;10.02;46.94
39491;BME280;25175;50.140;18.990;2023-12-28T12:27:42;98481.63;;;10.01;46.91
39491;BME280;25175;50.140;18.990;2023-12-28T12:30:52;98473.94;;;9.99;46.80
39491;BME280;25175;50.140;18.990;2023-12-28T12:33:59;98484.03;;;10.02;47.07
39491;BME280;25175;50.140;18.990;2023-12-28T12:37:09;98491.50;;;9.99;47.10
39491;BME280;25175;50.140;18.990;2023-12-28T12:40:18;98469.34;;;9.95;47.32
39491;BME280;25175;50.140;18.990;2023-12-28T12:43:23;98484.44;;;9.99;47.89
39491;BME280;25175;50.140;18.990;2023-12-28T12:46:30;98476.41;;;9.94;47.69
39491;BME280;25175;50.140;18.990;2023-12-28T12:49:35;98484.66;;;9.91;47.55
39491;BME280;25175;50.140;18.990;2023-12-28T12:52:45;98490.28;;;9.88;47.95
39491;BME280;25175;50.140;18.990;2023-12-28T12:55:54;98483.06;;;9.84;48.24
39491;BME280;25175;50.140;18.990;2023-12-28T12:59:01;98486.88;;;9.88;48.27
39491;BME280;25175;50.140;18.990;2023-12-28T13:02:07;98473.19;;;9.86;48.43
39491;BME280;25175;50.140;18.990;2023-12-28T13:05:15;98483.84;;;9.91;48.33
39491;BME280;25175;50.140;18.990;2023-12-28T13:08:23;98450.59;;;9.72;48.03
39491;BME280;25175;50.140;18.990;2023-12-28T13:11:29;98479.03;;;9.88;47.61
39491;BME280;25175;50.140;18.990;2023-12-28T13:14:34;98469.16;;;9.83;47.74
39491;BME280;25175;50.140;18.990;2023-12-28T13:17:39;98469.56;;;9.87;47.66
39491;BME280;25175;50.140;18.990;2023-12-28T13:20:46;98472.19;;;9.87;47.63
39491;BME280;25175;50.140;18.990;2023-12-28T13:23:54;98463.91;;;9.90;47.68
39491;BME280;25175;50.140;18.990;2023-12-28T13:27:00;98456.84;;;9.84;47.42
39491;BME280;25175;50.140;18.990;2023-12-28T13:30:07;98458.25;;;9.80;47.36
39491;BME280;25175;50.140;18.990;2023-12-28T13:33:13;98482.44;;;9.95;47.36
39491;BME280;25175;50.140;18.990;2023-12-28T13:36:18;98494.94;;;9.93;47.00
39491;BME280;25175;50.140;18.990;2023-12-28T13:39:25;98491.13;;;9.89;47.30
39491;BME280;25175;50.140;18.990;2023-12-28T13:42:30;98500.19;;;9.86;47.26
39491;BME280;25175;50.140;18.990;2023-12-28T13:45:35;98465.34;;;9.86;47.37
39491;BME280;25175;50.140;18.990;2023-12-28T13:48:43;98467.75;;;9.81;47.28
39491;BME280;25175;50.140;18.990;2023-12-28T13:51:49;98459.66;;;9.76;47.23
39491;BME280;25175;50.140;18.990;2023-12-28T13:54:57;98474.97;;;9.79;46.97
39491;BME280;25175;50.140;18.990;2023-12-28T13:58:02;98466.50;;;9.77;47.16
39491;BME280;25175;50.140;18.990;2023-12-28T14:01:08;98495.13;;;9.72;47.23
39491;BME280;25175;50.140;18.990;2023-12-28T14:04:16;98490.09;;;9.64;47.20
39491;BME280;25175;50.140;18.990;2023-12-28T14:07:21;98506.63;;;9.64;47.30
39491;BME280;25175;50.140;18.990;2023-12-28T14:10:29;98489.47;;;9.55;47.04
39491;BME280;25175;50.140;18.990;2023-12-28T14:13:34;98508.03;;;9.54;47.15
39491;BME280;25175;50.140;18.990;2023-12-28T14:16:39;98517.09;;;9.51;47.00
39491;BME280;25175;50.140;18.990;2023-12-28T14:19:45;98513.66;;;9.38;47.08
39491;BME280;25175;50.140;18.990;2023-12-28T14:22:55;98513.25;;;9.47;46.69
39491;BME280;25175;50.140;18.990;2023-12-28T14:26:12;98505.41;;;9.47;46.77
39491;BME280;25175;50.140;18.990;2023-12-28T14:29:18;98501.34;;;9.45;46.60
39491;BME280;25175;50.140;18.990;2023-12-28T14:32:29;98508.63;;;9.43;46.27
39491;BME280;25175;50.140;18.990;2023-12-28T14:35:35;98498.94;;;9.37;46.29
39491;BME280;25175;50.140;18.990;2023-12-28T14:38:41;98496.31;;;9.37;46.43
39491;BME280;25175;50.140;18.990;2023-12-28T14:41:48;98505.38;;;9.34;46.42
39491;BME280;25175;50.140;18.990;2023-12-28T14:44:53;98507.19;;;9.34;46.54
39491;BME280;25175;50.140;18.990;2023-12-28T14:47:59;98501.34;;;9.32;46.57
39491;BME280;25175;50.140;18.990;2023-12-28T14:51:04;98476.56;;;9.15;46.68
39491;BME280;25175;50.140;18.990;2023-12-28T14:54:09;98491.69;;;9.26;46.85
39491;BME280;25175;50.140;18.990;2023-12-28T14:57:17;98496.28;;;9.24;47.03
39491;BME280;25175;50.140;18.990;2023-12-28T15:00:22;98490.03;;;9.12;47.18
39491;BME280;25175;50.140;18.990;2023-12-28T15:03:27;98498.50;;;9.20;47.27
39491;BME280;25175;50.140;18.990;2023-12-28T15:06:32;98492.03;;;9.16;47.31
39491;BME280;25175;50.140;18.990;2023-12-28T15:09:38;98502.72;;;9.15;47.79
39491;BME280;25175;50.140;18.990;2023-12-28T15:12:45;98502.94;;;9.13;47.98
39491;BME280;25175;50.140;18.990;2023-12-28T15:15:52;98497.84;;;9.05;48.35
39491;BME280;25175;50.140;18.990;2023-12-28T15:18:57;98497.22;;;8.97;48.65
39491;BME280;25175;50.140;18.990;2023-12-28T15:22:04;98503.09;;;8.99;49.00
39491;BME280;25175;50.140;18.990;2023-12-28T15:25:09;98502.28;;;8.98;49.21
39491;BME280;25175;50.140;18.990;2023-12-28T15:28:17;98497.03;;;8.98;49.27
39491;BME280;25175;50.140;18.990;2023-12-28T15:31:22;98498.25;;;8.96;49.43
39491;BME280;25175;50.140;18.990;2023-12-28T15:34:27;98503.66;;;8.94;49.29
39491;BME280;25175;50.140;18.990;2023-12-28T15:37:34;98502.66;;;8.89;49.20
39491;BME280;25175;50.140;18.990;2023-12-28T15:40:40;98514.13;;;8.88;49.24
39491;BME280;25175;50.140;18.990;2023-12-28T15:43:47;98510.88;;;8.86;49.24
39491;BME280;25175;50.140;18.990;2023-12-28T15:46:52;98492.78;;;8.84;49.11
39491;BME280;25175;50.140;18.990;2023-12-28T15:49:57;98504.66;;;8.87;49.23
39491;BME280;25175;50.140;18.990;2023-12-28T15:53:03;98507.28;;;8.87;49.16
39491;BME280;25175;50.140;18.990;2023-12-28T15:56:09;98507.47;;;8.85;49.03
39491;BME280;25175;50.140;18.990;2023-12-28T15:59:21;98502.63;;;8.82;49.32
39491;BME280;25175;50.140;18.990;2023-12-28T16:02:29;98496.38;;;8.77;49.47
39491;BME280;25175;50.140;18.990;2023-12-28T16:05:37;98498.19;;;8.76;49.67
39491;BME280;25175;50.140;18.990;2023-12-28T16:08:42;98503.81;;;8.73;49.67
39491;BME280;25175;50.140;18.990;2023-12-28T16:11:49;98509.47;;;8.77;49.93
39491;BME280;25175;50.140;18.990;2023-12-28T16:14:57;98510.47;;;8.76;49.91
39491;BME280;25175;50.140;18.990;2023-12-28T16:18:04;98509.41;;;8.70;49.83
39491;BME280;25175;50.140;18.990;2023-12-28T16:21:10;98504.19;;;8.70;49.95
39491;BME280;25175;50.140;18.990;2023-12-28T16:24:19;98506.00;;;8.70;50.01
39491;BME280;25175;50.140;18.990;2023-12-28T16:27:25;98504.97;;;8.64;49.76
39491;BME280;25175;50.140;18.990;2023-12-28T16:30:34;98500.13;;;8.61;50.00